This is the latest recevied weather packets stored in our database for station/object SR2CPA-13. If no packets are shown the sender has not sent any weather packets the latest 10 day(s).
| Time | Temp. | Humidity | Pressure | Rain* | Wind** | Luminosity | Snow |
|---|---|---|---|---|---|---|---|
| 1778370847 | 4.44° C | 94% | 0 hPa | 0 mm | - | - | - |
| 1778370247 | 4.44° C | 92% | 0 hPa | 0 mm | - | - | - |
| 1778369647 | 5° C | 85% | 0 hPa | 0 mm | - | - | - |
| 1778369027 | 5.56° C | 80% | 0 hPa | 0 mm | - | - | - |
| 1778368427 | 5.56° C | 76% | 0 hPa | 0 mm | - | - | - |
| 1778367827 | 6.11° C | 75% | 0 hPa | 0 mm | - | - | - |
| 1778367207 | 6.11° C | 73% | 0 hPa | 0 mm | - | - | - |
| 1778366607 | 6.67° C | 71% | 0 hPa | 0 mm | - | - | - |
| 1778365987 | 6.67° C | 70% | 0 hPa | 0 mm | - | - | - |
| 1778365387 | 6.67° C | 69% | 0 hPa | 0 mm | - | - | - |
| 1778364787 | 7.78° C | 65% | 0 hPa | 0 mm | - | - | - |
| 1778364187 | 7.78° C | 65% | 0 hPa | 0 mm | - | - | - |
| 1778363587 | 7.78° C | 66% | 0 hPa | 0 mm | - | - | - |
| 1778362987 | 7.78° C | 65% | 0 hPa | 0 mm | - | - | - |
| 1778362387 | 7.78° C | 65% | 0 hPa | 0 mm | - | - | - |
| 1778361767 | 7.78° C | 64% | 0 hPa | 0 mm | - | - | - |
| 1778361167 | 7.78° C | 65% | 0 hPa | 0 mm | - | - | - |
| 1778360547 | 7.78° C | 66% | 0 hPa | 0 mm | - | - | - |
| 1778359947 | 7.78° C | 65% | 0 hPa | 0 mm | - | - | - |
| 1778359347 | 8.33° C | 64% | 0 hPa | 0 mm | - | - | - |
| 1778358727 | 8.89° C | 63% | 0 hPa | 0 mm | - | - | - |
| 1778358127 | 8.89° C | 61% | 0 hPa | 0 mm | - | - | - |
| 1778357526 | 9.44° C | 58% | 0 hPa | 0 mm | - | - | - |
| 1778356927 | 10° C | 55% | 0 hPa | 0 mm | - | - | - |
| 1778356307 | 10.56° C | 54% | 0 hPa | 0 mm | - | - | - |
* Rain latest hour (hover to see other rain measurements)
** Current wind speed in m/s (hover to see current wind gust speed)